createdAt,value
2018-12-13T00:00:40.579Z,5.06
2018-12-13T00:03:08.702Z,4.88
2018-12-13T00:05:36.826Z,4.51
2018-12-13T00:08:04.926Z,5.53
2018-12-13T00:10:32.959Z,5.26
2018-12-13T00:13:01.093Z,5.17
2018-12-13T00:15:32.098Z,4.59
2018-12-13T00:18:00.327Z,4.85
2018-12-13T00:20:28.597Z,4.52
2018-12-13T00:22:56.703Z,4.22
2018-12-13T00:25:24.733Z,4.66
2018-12-13T00:27:52.832Z,4.88
2018-12-13T00:30:20.983Z,4.82
2018-12-13T00:32:49.058Z,5.27
2018-12-13T00:35:17.158Z,5.24
2018-12-13T00:37:45.262Z,4.27
2018-12-13T00:40:13.842Z,5.75
2018-12-13T00:42:41.955Z,5.25
2018-12-13T00:45:10.102Z,5.04
2018-12-13T00:47:38.206Z,4.73
2018-12-13T00:50:06.374Z,5.07
2018-12-13T00:52:34.439Z,4.64
2018-12-13T00:55:02.484Z,4.54
2018-12-13T00:57:30.605Z,5.03
2018-12-13T00:59:58.708Z,5.57
2018-12-13T01:02:26.872Z,5.95
2018-12-13T01:04:54.982Z,5.34
2018-12-13T01:07:23.022Z,4.87
2018-12-13T01:09:51.170Z,4.97
2018-12-13T01:12:19.287Z,4.04
2018-12-13T01:14:47.443Z,4.93
2018-12-13T01:17:15.538Z,4.20
2018-12-13T01:19:43.573Z,4.86
2018-12-13T01:22:11.613Z,4.11
2018-12-13T01:24:39.743Z,4.48
2018-12-13T01:27:07.854Z,4.60
2018-12-13T01:29:35.877Z,4.58
2018-12-13T01:32:03.968Z,4.94
2018-12-13T01:34:32.051Z,4.28
2018-12-13T01:37:00.190Z,4.42
2018-12-13T01:39:28.252Z,4.14
2018-12-13T01:41:56.347Z,3.23
2018-12-13T01:44:24.422Z,3.82
2018-12-13T01:46:52.502Z,4.39
2018-12-13T01:49:20.546Z,4.18
2018-12-13T01:51:48.575Z,4.54
2018-12-13T01:54:16.653Z,4.62
2018-12-13T01:56:44.847Z,4.81
2018-12-13T01:59:12.906Z,4.45
2018-12-13T02:01:40.942Z,4.18
2018-12-13T02:04:08.979Z,4.67
2018-12-13T02:06:37.012Z,4.47
2018-12-13T02:09:06.589Z,3.81
2018-12-13T02:11:34.685Z,4.17
2018-12-13T02:14:02.790Z,4.74
2018-12-13T02:16:30.852Z,4.51
2018-12-13T02:18:58.884Z,4.48
2018-12-13T02:21:27.000Z,5.13
2018-12-13T02:23:55.117Z,4.63
2018-12-13T02:26:23.223Z,4.29
2018-12-13T02:28:51.346Z,3.69
2018-12-13T02:34:03.039Z,4.71
2018-12-13T02:36:31.218Z,4.18
2018-12-13T02:38:59.260Z,4.54
2018-12-13T02:41:27.460Z,5.21
2018-12-13T02:43:55.596Z,3.67
2018-12-13T02:46:24.018Z,4.61
2018-12-13T02:49:02.220Z,4.58
2018-12-13T02:51:30.366Z,4.29
2018-12-13T02:53:58.410Z,4.26
2018-12-13T02:56:26.553Z,4.28
2018-12-13T02:58:54.662Z,4.19
2018-12-13T03:01:22.783Z,4.07
2018-12-13T03:03:50.914Z,4.20
2018-12-13T03:06:19.138Z,4.56
2018-12-13T03:08:47.451Z,4.27
2018-12-13T03:11:15.604Z,3.40
2018-12-13T03:13:43.627Z,4.21
2018-12-13T03:16:11.739Z,3.91
2018-12-13T03:18:39.778Z,3.12
2018-12-13T03:21:07.904Z,3.96
2018-12-13T03:23:35.970Z,3.51
2018-12-13T03:26:04.082Z,3.96
2018-12-13T03:28:32.191Z,4.55
2018-12-13T03:31:00.235Z,3.99
2018-12-13T03:33:28.261Z,3.66
2018-12-13T03:35:56.322Z,3.74
2018-12-13T03:38:24.422Z,3.65
2018-12-13T03:40:52.461Z,3.56
2018-12-13T03:43:22.170Z,4.55
2018-12-13T03:45:50.309Z,3.62
2018-12-13T03:48:18.424Z,3.98
2018-12-13T03:50:46.538Z,4.37
2018-12-13T03:53:14.566Z,4.32
2018-12-13T03:58:24.117Z,3.72
2018-12-13T04:01:11.749Z,3.53
2018-12-13T04:03:39.874Z,3.40
2018-12-13T04:06:07.952Z,3.77
2018-12-13T04:08:35.998Z,3.47
2018-12-13T04:11:04.106Z,2.94
2018-12-13T04:13:32.206Z,3.68
2018-12-13T04:16:00.243Z,3.61
2018-12-13T04:18:28.267Z,3.60
2018-12-13T04:20:57.333Z,2.93
2018-12-13T04:23:25.790Z,2.83
2018-12-13T04:25:53.881Z,3.34
2018-12-13T04:28:21.917Z,4.22
2018-12-13T04:30:49.968Z,2.99
2018-12-13T04:33:18.005Z,3.54
2018-12-13T04:38:27.600Z,3.64
2018-12-13T04:40:55.736Z,3.26
2018-12-13T04:43:23.837Z,3.24
2018-12-13T04:45:51.917Z,3.50
2018-12-13T04:48:19.948Z,3.86
2018-12-13T04:50:48.088Z,3.80
2018-12-13T04:53:16.118Z,3.85
2018-12-13T04:55:44.330Z,4.30
2018-12-13T04:58:12.362Z,3.59
2018-12-13T05:00:40.414Z,3.85
2018-12-13T05:03:09.466Z,3.64
2018-12-13T05:05:37.498Z,3.63
2018-12-13T05:08:05.554Z,2.55
2018-12-13T05:10:47.819Z,3.21
2018-12-13T05:13:15.880Z,4.10
2018-12-13T05:15:43.917Z,2.15
2018-12-13T05:18:11.942Z,2.41
2018-12-13T05:20:40.037Z,3.03
2018-12-13T05:23:08.062Z,3.52
2018-12-13T05:25:36.397Z,3.38
2018-12-13T05:28:04.498Z,2.70
2018-12-13T05:30:32.551Z,2.75
2018-12-13T05:33:00.714Z,3.31
2018-12-13T05:35:28.850Z,3.57
2018-12-13T05:37:56.901Z,2.85
2018-12-13T05:40:24.924Z,2.93
2018-12-13T05:42:53.024Z,3.34
2018-12-13T05:45:21.075Z,2.85
2018-12-13T05:47:49.094Z,3.60
2018-12-13T05:50:17.203Z,2.50
2018-12-13T05:52:45.318Z,1.97
2018-12-13T05:55:13.438Z,2.59
2018-12-13T05:57:41.509Z,2.63
2018-12-13T06:00:10.325Z,2.35
2018-12-13T06:02:38.955Z,2.35
2018-12-13T06:05:07.321Z,2.13
2018-12-13T06:07:35.452Z,2.75
2018-12-13T06:10:03.685Z,2.97
2018-12-13T06:12:31.786Z,2.55
2018-12-13T06:14:59.819Z,2.13
2018-12-13T06:17:27.923Z,1.52
2018-12-13T06:19:56.018Z,2.19
2018-12-13T06:22:30.552Z,1.59
2018-12-13T06:24:58.676Z,2.16
2018-12-13T06:27:26.774Z,2.24
2018-12-13T06:29:58.855Z,2.88
2018-12-13T06:32:24.863Z,2.42
2018-12-13T06:34:52.930Z,2.08
2018-12-13T06:37:20.990Z,2.47
2018-12-13T06:39:49.538Z,2.44
2018-12-13T06:42:17.630Z,3.47
2018-12-13T06:44:45.690Z,3.39
2018-12-13T06:47:13.722Z,3.16
2018-12-13T06:49:41.758Z,3.27
2018-12-13T06:52:09.870Z,2.41
2018-12-13T06:54:37.985Z,2.54
2018-12-13T06:57:06.039Z,2.17
2018-12-13T06:59:34.240Z,2.64
2018-12-13T07:02:02.340Z,2.18
2018-12-13T07:04:30.394Z,2.05
2018-12-13T07:06:58.515Z,2.55
2018-12-13T07:09:26.593Z,1.81
2018-12-13T07:11:55.178Z,2.55
2018-12-13T07:14:23.234Z,2.26
2018-12-13T07:16:51.286Z,1.33
2018-12-13T07:19:19.336Z,2.19
2018-12-13T07:21:47.507Z,2.28
2018-12-13T07:24:15.606Z,2.36
2018-12-13T07:26:43.769Z,3.06
2018-12-13T07:29:11.797Z,2.02
2018-12-13T07:31:39.915Z,2.38
2018-12-13T07:34:08.026Z,3.26
2018-12-13T07:36:36.154Z,3.16
2018-12-13T07:39:07.057Z,3.01
2018-12-13T07:41:35.102Z,2.81
2018-12-13T07:44:03.191Z,2.54
2018-12-13T07:46:31.270Z,2.62
2018-12-13T07:48:59.412Z,2.61
2018-12-13T07:51:27.585Z,3.46
2018-12-13T07:53:55.735Z,1.76
2018-12-13T07:56:23.836Z,2.42
2018-12-13T07:58:51.904Z,1.80
2018-12-13T08:01:19.954Z,2.15
2018-12-13T08:03:48.034Z,2.65
2018-12-13T08:06:16.074Z,2.14
2018-12-13T08:08:44.188Z,2.46
2018-12-13T08:11:12.299Z,2.82
2018-12-13T08:13:40.342Z,2.91
2018-12-13T08:16:08.445Z,2.46
2018-12-13T08:18:36.514Z,2.08
2018-12-13T08:21:04.645Z,2.39
2018-12-13T08:23:32.738Z,2.86
2018-12-13T08:26:00.781Z,2.60
2018-12-13T08:28:28.835Z,2.60
2018-12-13T08:30:56.878Z,3.48
2018-12-13T08:33:25.003Z,3.24
2018-12-13T08:35:53.118Z,3.39
2018-12-13T08:38:27.100Z,3.10
2018-12-13T08:40:51.289Z,3.33
2018-12-13T08:43:19.359Z,3.79
2018-12-13T08:45:47.486Z,3.18
2018-12-13T08:48:15.552Z,3.47
2018-12-13T08:50:43.605Z,3.50
2018-12-13T08:53:11.774Z,2.37
2018-12-13T08:55:39.919Z,1.65
2018-12-13T08:58:07.960Z,2.22
2018-12-13T09:00:36.000Z,2.07
2018-12-13T09:03:04.140Z,2.99
2018-12-13T09:05:32.291Z,3.66
2018-12-13T09:08:01.092Z,3.67
2018-12-13T09:10:29.219Z,3.75
2018-12-13T09:12:57.280Z,3.52
2018-12-13T09:15:25.343Z,3.06
2018-12-13T09:17:53.410Z,2.46
2018-12-13T09:20:21.530Z,2.66
2018-12-13T09:22:49.731Z,2.45
2018-12-13T09:25:17.883Z,2.54
2018-12-13T09:27:46.245Z,3.27
2018-12-13T09:30:14.368Z,2.93
2018-12-13T09:32:42.398Z,3.58
2018-12-13T09:35:10.533Z,3.53
2018-12-13T09:37:38.693Z,3.43
2018-12-13T09:40:06.771Z,2.05
2018-12-13T09:42:34.878Z,3.15
2018-12-13T09:45:03.167Z,3.07
2018-12-13T09:47:31.231Z,2.78
2018-12-13T09:49:59.301Z,2.61
2018-12-13T09:52:27.369Z,2.84
2018-12-13T09:54:55.434Z,3.08
2018-12-13T09:57:23.636Z,3.25
2018-12-13T09:59:51.786Z,2.58
2018-12-13T10:02:20.977Z,2.81
2018-12-13T10:04:49.046Z,2.75
2018-12-13T10:07:17.096Z,2.94
2018-12-13T10:09:45.271Z,3.46
2018-12-13T10:12:13.297Z,3.30
2018-12-13T10:14:41.376Z,3.96
2018-12-13T10:17:09.425Z,3.17
2018-12-13T10:19:37.506Z,3.69
2018-12-13T10:22:11.498Z,3.09
2018-12-13T10:24:35.734Z,3.61
2018-12-13T10:27:03.883Z,2.90
2018-12-13T10:29:32.039Z,3.56
2018-12-13T10:32:00.188Z,2.92
2018-12-13T10:34:28.245Z,3.08
2018-12-13T10:36:56.415Z,3.18
2018-12-13T10:39:24.547Z,3.52
2018-12-13T10:41:52.668Z,3.60
2018-12-13T10:44:24.989Z,3.88
2018-12-13T10:46:54.163Z,2.90
2018-12-13T10:49:22.383Z,3.25
2018-12-13T10:51:50.586Z,3.19
2018-12-13T10:54:18.683Z,3.77
2018-12-13T10:56:47.422Z,3.61
2018-12-13T10:59:15.481Z,3.58
2018-12-13T11:01:47.849Z,2.83
2018-12-13T11:04:16.043Z,3.92
2018-12-13T11:06:44.176Z,4.75
2018-12-13T11:09:12.235Z,4.47
2018-12-13T11:11:40.404Z,4.59
2018-12-13T11:14:08.550Z,4.76
2018-12-13T11:16:36.626Z,4.64
2018-12-13T11:19:04.752Z,3.42
2018-12-13T11:21:32.880Z,4.71
2018-12-13T11:24:00.941Z,4.39
2018-12-13T11:29:27.347Z,4.31
2018-12-13T11:31:55.430Z,4.40
2018-12-13T11:34:23.531Z,4.82
2018-12-13T11:36:51.609Z,4.74
2018-12-13T11:39:19.663Z,4.80
2018-12-13T11:41:47.779Z,4.59
2018-12-13T11:44:15.831Z,4.73
2018-12-13T11:46:43.969Z,4.40
2018-12-13T11:49:12.380Z,4.66
2018-12-13T11:51:40.710Z,5.62
2018-12-13T11:54:20.346Z,5.23
2018-12-13T11:56:49.367Z,4.13
2018-12-13T11:59:17.477Z,4.82
2018-12-13T12:01:45.634Z,5.20
2018-12-13T12:04:13.672Z,5.28
2018-12-13T12:06:41.743Z,5.57
2018-12-13T12:09:12.387Z,4.91
2018-12-13T12:11:39.930Z,4.91
2018-12-13T12:14:08.161Z,4.13
2018-12-13T12:16:36.224Z,3.85
2018-12-13T12:19:04.302Z,3.37
2018-12-13T12:21:32.359Z,4.31
2018-12-13T12:24:00.492Z,4.91
2018-12-13T12:26:28.547Z,4.16
2018-12-13T12:28:56.606Z,3.54
2018-12-13T12:31:24.700Z,4.88
2018-12-13T12:33:52.850Z,4.90
2018-12-13T12:36:20.889Z,4.97
2018-12-13T12:38:48.963Z,4.80
2018-12-13T12:41:16.997Z,4.17
2018-12-13T12:43:45.078Z,4.71
2018-12-13T12:46:13.139Z,4.84
2018-12-13T12:48:41.184Z,4.78
2018-12-13T12:51:09.554Z,4.77
2018-12-13T12:53:37.609Z,4.61
2018-12-13T12:56:05.694Z,4.08
2018-12-13T12:58:33.737Z,4.26
2018-12-13T13:03:42.521Z,3.78
2018-12-13T13:06:10.666Z,3.59
2018-12-13T13:08:38.715Z,4.14
2018-12-13T13:11:06.889Z,3.06
2018-12-13T13:13:34.951Z,3.28
2018-12-13T13:16:03.066Z,4.06
2018-12-13T13:18:31.542Z,4.25
2018-12-13T13:20:59.624Z,4.06
2018-12-13T13:23:27.682Z,3.34
2018-12-13T13:25:55.724Z,3.53
2018-12-13T13:28:23.796Z,3.08
2018-12-13T13:30:51.856Z,3.75
2018-12-13T13:33:19.954Z,3.94
2018-12-13T13:35:48.013Z,3.59
2018-12-13T13:38:16.074Z,3.47
2018-12-13T13:40:44.115Z,2.96
2018-12-13T13:43:12.237Z,3.02
2018-12-13T13:45:40.307Z,3.54
2018-12-13T13:48:08.430Z,4.30
2018-12-13T13:50:36.566Z,4.13
2018-12-13T13:53:04.700Z,3.60
2018-12-13T13:55:32.772Z,4.28
2018-12-13T13:58:00.929Z,4.03
2018-12-13T14:00:29.038Z,3.19
2018-12-13T14:02:57.125Z,4.03
2018-12-13T14:05:25.351Z,4.04
2018-12-13T14:07:53.454Z,3.24
2018-12-13T14:10:21.539Z,2.88
2018-12-13T14:12:49.574Z,3.22
2018-12-13T14:15:17.653Z,2.99
2018-12-13T14:17:45.722Z,3.01
2018-12-13T14:20:13.845Z,3.23
2018-12-13T14:22:41.991Z,2.77
2018-12-13T14:25:10.181Z,3.24
2018-12-13T14:27:38.319Z,3.37
2018-12-13T14:30:06.645Z,4.25
2018-12-13T14:32:34.777Z,4.73
2018-12-13T14:35:02.964Z,3.97
2018-12-13T14:37:31.052Z,4.19
2018-12-13T14:39:59.184Z,3.67
2018-12-13T14:42:27.318Z,3.21
2018-12-13T14:44:55.429Z,3.69
2018-12-13T14:47:23.528Z,3.50
2018-12-13T14:49:51.624Z,2.64
2018-12-13T14:52:19.775Z,4.10
2018-12-13T14:54:47.821Z,4.06
2018-12-13T14:57:15.878Z,4.21
2018-12-13T14:59:47.051Z,3.79
2018-12-13T15:02:14.171Z,4.62
2018-12-13T15:04:42.237Z,3.90
2018-12-13T15:07:10.277Z,3.75
2018-12-13T15:09:38.465Z,3.58
2018-12-13T15:12:06.637Z,4.61
2018-12-13T15:14:34.696Z,3.63
2018-12-13T15:17:02.839Z,4.51
2018-12-13T15:19:30.921Z,3.78
2018-12-13T15:21:58.989Z,2.54
2018-12-13T15:24:27.038Z,3.58
2018-12-13T15:26:55.092Z,3.22
2018-12-13T15:29:23.166Z,4.04
2018-12-13T15:31:51.229Z,3.46
2018-12-13T15:34:19.343Z,4.04
2018-12-13T15:36:47.405Z,4.05
2018-12-13T15:39:15.499Z,4.20
2018-12-13T15:41:43.558Z,4.34
2018-12-13T15:44:11.638Z,4.45
2018-12-13T15:46:39.743Z,4.34
2018-12-13T15:49:07.862Z,4.03
2018-12-13T15:51:37.978Z,3.56
2018-12-13T15:54:06.034Z,2.91
2018-12-13T15:56:34.293Z,2.90
2018-12-13T15:59:02.420Z,3.53
2018-12-13T16:01:30.555Z,3.01
2018-12-13T16:03:58.645Z,2.95
2018-12-13T16:06:26.809Z,2.58
2018-12-13T16:08:55.958Z,2.64
2018-12-13T16:11:24.195Z,3.91
2018-12-13T16:13:52.279Z,3.45
2018-12-13T16:16:20.451Z,3.44
2018-12-13T16:18:48.518Z,3.18
2018-12-13T16:21:16.633Z,3.41
2018-12-13T16:23:44.756Z,2.90
2018-12-13T16:26:12.891Z,3.85
2018-12-13T16:28:41.003Z,3.67
2018-12-13T16:31:09.074Z,3.54
2018-12-13T16:33:37.178Z,3.16
2018-12-13T16:36:05.298Z,3.17
2018-12-13T16:38:33.445Z,4.51
2018-12-13T16:41:01.571Z,4.20
2018-12-13T16:43:29.705Z,4.42
2018-12-13T16:45:57.827Z,3.54
2018-12-13T16:48:26.066Z,2.51
2018-12-13T16:50:54.294Z,3.16
2018-12-13T16:53:23.023Z,2.69
2018-12-13T16:55:51.101Z,2.82
2018-12-13T16:58:19.175Z,3.54
2018-12-13T17:00:47.237Z,2.59
2018-12-13T17:03:26.681Z,2.32
2018-12-13T17:05:55.038Z,3.20
2018-12-13T17:08:23.107Z,3.63
2018-12-13T17:10:51.165Z,3.58
2018-12-13T17:13:19.234Z,3.27
2018-12-13T17:15:47.382Z,3.58
2018-12-13T17:18:15.427Z,3.84
2018-12-13T17:20:43.538Z,2.93
2018-12-13T17:23:11.646Z,3.78
2018-12-13T17:25:39.754Z,3.79
2018-12-13T17:28:07.954Z,3.35
2018-12-13T17:30:36.148Z,3.08
2018-12-13T17:33:04.251Z,3.63
2018-12-13T17:35:32.510Z,3.49
2018-12-13T17:38:00.665Z,2.99
2018-12-13T17:40:29.134Z,3.39
2018-12-13T17:42:57.300Z,2.67
2018-12-13T17:45:25.350Z,3.32
2018-12-13T17:47:53.615Z,3.30
2018-12-13T17:50:21.825Z,2.89
2018-12-13T17:52:49.959Z,3.73
2018-12-13T17:55:17.996Z,3.73
2018-12-13T17:57:46.067Z,3.69
2018-12-13T18:00:14.330Z,3.02
2018-12-13T18:02:42.536Z,3.93
2018-12-13T18:05:10.763Z,3.77
2018-12-13T18:07:38.962Z,3.60
2018-12-13T18:10:09.319Z,4.15
2018-12-13T18:12:37.506Z,3.89
2018-12-13T18:15:05.866Z,4.29
2018-12-13T18:17:34.038Z,3.67
2018-12-13T18:20:02.204Z,3.40
2018-12-13T18:22:30.402Z,3.36
2018-12-13T18:24:58.522Z,4.08
2018-12-13T18:27:26.567Z,3.84
2018-12-13T18:29:54.683Z,3.68
2018-12-13T18:32:22.774Z,3.73
2018-12-13T18:34:50.836Z,3.86
2018-12-13T18:37:18.980Z,3.43
2018-12-13T18:39:47.128Z,3.73
2018-12-13T18:42:15.273Z,2.98
2018-12-13T18:44:43.413Z,3.45
2018-12-13T18:47:11.557Z,3.83
2018-12-13T18:49:39.613Z,3.09
2018-12-13T18:52:07.668Z,3.00
2018-12-13T18:54:35.816Z,3.04
2018-12-13T18:57:03.994Z,2.25
2018-12-13T18:59:32.104Z,3.47
2018-12-13T19:02:00.419Z,3.00
2018-12-13T19:04:28.461Z,3.06
2018-12-13T19:06:56.560Z,3.64
2018-12-13T19:09:24.637Z,3.50
2018-12-13T19:11:52.729Z,3.36
2018-12-13T19:14:20.807Z,4.40
2018-12-13T19:16:48.922Z,3.78
2018-12-13T19:19:16.971Z,2.94
2018-12-13T19:21:45.043Z,3.66
2018-12-13T19:24:13.266Z,3.42
2018-12-13T19:26:41.921Z,4.05
2018-12-13T19:29:10.112Z,4.00
2018-12-13T19:31:38.368Z,3.85
2018-12-13T19:34:06.429Z,4.22
2018-12-13T19:36:34.485Z,3.93
2018-12-13T19:39:05.756Z,4.41
2018-12-13T19:41:34.151Z,4.75
2018-12-13T19:44:02.257Z,3.96
2018-12-13T19:46:30.348Z,4.40
2018-12-13T19:48:58.419Z,3.87
2018-12-13T19:51:26.489Z,3.86
2018-12-13T19:53:54.824Z,3.97
2018-12-13T19:56:22.977Z,3.36
2018-12-13T19:58:51.095Z,2.26
2018-12-13T20:01:19.218Z,3.01
2018-12-13T20:03:47.313Z,3.19
2018-12-13T20:06:15.404Z,3.22
2018-12-13T20:08:43.528Z,3.48
2018-12-13T20:11:11.685Z,2.72
2018-12-13T20:13:39.835Z,3.26
2018-12-13T20:16:07.969Z,3.02
2018-12-13T20:18:36.113Z,2.30
2018-12-13T20:21:04.242Z,3.04
2018-12-13T20:23:32.311Z,3.33
2018-12-13T20:26:00.438Z,3.20
2018-12-13T20:28:28.490Z,3.38
2018-12-13T20:30:56.619Z,3.19
2018-12-13T20:33:24.676Z,3.22
2018-12-13T20:35:52.834Z,3.42
2018-12-13T20:38:20.906Z,3.81
2018-12-13T20:40:48.966Z,2.80
2018-12-13T20:43:17.298Z,3.05
2018-12-13T20:45:46.255Z,3.67
2018-12-13T20:48:14.294Z,3.65
2018-12-13T20:50:42.370Z,4.07
2018-12-13T20:53:10.473Z,3.06
2018-12-13T20:55:39.700Z,3.85
2018-12-13T20:58:07.750Z,3.35
2018-12-13T21:00:35.837Z,2.90
2018-12-13T21:03:03.940Z,2.84
2018-12-13T21:05:32.056Z,3.29
2018-12-13T21:08:05.583Z,3.86
2018-12-13T21:10:33.770Z,3.76
2018-12-13T21:13:02.210Z,3.79
2018-12-13T21:15:30.282Z,4.12
2018-12-13T21:17:58.322Z,4.87
2018-12-13T21:20:26.491Z,4.03
2018-12-13T21:22:54.679Z,4.41
2018-12-13T21:25:22.898Z,4.47
2018-12-13T21:27:51.074Z,4.35
2018-12-13T21:30:19.238Z,4.12
2018-12-13T21:32:47.282Z,4.21
2018-12-13T21:35:15.345Z,4.04
2018-12-13T21:37:43.400Z,4.03
2018-12-13T21:40:11.463Z,4.04
2018-12-13T21:42:39.523Z,4.37
2018-12-13T21:45:07.672Z,4.84
2018-12-13T21:47:42.330Z,4.58
2018-12-13T21:50:10.497Z,3.88
2018-12-13T21:52:38.628Z,4.16
2018-12-13T21:55:06.791Z,4.23
2018-12-13T21:57:34.925Z,4.87
2018-12-13T22:00:03.093Z,4.22
2018-12-13T22:02:31.160Z,4.76
2018-12-13T22:04:59.209Z,4.73
2018-12-13T22:07:27.324Z,4.38
2018-12-13T22:09:55.378Z,4.16
2018-12-13T22:12:23.484Z,3.41
2018-12-13T22:14:51.593Z,3.66
2018-12-13T22:17:19.734Z,4.54
2018-12-13T22:19:47.834Z,3.73
2018-12-13T22:22:18.869Z,2.82
2018-12-13T22:24:46.914Z,3.72
2018-12-13T22:27:15.002Z,3.48
2018-12-13T22:29:43.054Z,3.29
2018-12-13T22:32:11.214Z,3.04
2018-12-13T22:34:39.428Z,2.96
2018-12-13T22:37:07.764Z,3.40
2018-12-13T22:39:35.887Z,3.10
2018-12-13T22:44:27.744Z,3.05
2018-12-13T22:46:55.947Z,2.83
2018-12-13T22:49:24.116Z,3.84
2018-12-13T22:51:53.642Z,3.88
2018-12-13T22:54:21.872Z,3.55
2018-12-13T22:56:50.077Z,3.72
2018-12-13T22:59:19.496Z,2.82
2018-12-13T23:01:47.598Z,2.89
2018-12-13T23:04:15.650Z,3.00
2018-12-13T23:06:43.736Z,3.05
2018-12-13T23:09:11.822Z,2.81
2018-12-13T23:11:40.566Z,3.22
2018-12-13T23:14:08.711Z,2.45
2018-12-13T23:16:36.828Z,3.06
2018-12-13T23:19:04.922Z,2.73
2018-12-13T23:21:33.090Z,3.35
2018-12-13T23:24:01.144Z,3.28
2018-12-13T23:26:29.191Z,2.81
2018-12-13T23:28:57.304Z,3.07
2018-12-13T23:31:25.350Z,2.88
2018-12-13T23:33:53.421Z,2.97
2018-12-13T23:36:22.226Z,3.08
2018-12-13T23:38:50.351Z,2.91
2018-12-13T23:41:18.420Z,3.37
2018-12-13T23:43:46.454Z,3.06
2018-12-13T23:46:14.727Z,3.87
2018-12-13T23:48:42.830Z,2.69
2018-12-13T23:51:10.870Z,2.62
2018-12-13T23:53:38.966Z,2.23
2018-12-13T23:56:07.149Z,2.85
2018-12-13T23:58:35.457Z,2.94
